sensor_id;sensor_type;location;lat;lon;timestamp;temperature;humidity
31455;DHT22;18084;53.028;8.834;2023-08-06T00:01:48;16.20;99.90
31455;DHT22;18084;53.028;8.834;2023-08-06T00:04:14;15.20;99.90
31455;DHT22;18084;53.028;8.834;2023-08-06T00:06:39;16.30;99.90
31455;DHT22;18084;53.028;8.834;2023-08-06T00:09:05;13.90;99.90
31455;DHT22;18084;53.028;8.834;2023-08-06T00:11:30;15.40;99.90
31455;DHT22;18084;53.028;8.834;2023-08-06T00:13:56;15.70;99.90
31455;DHT22;18084;53.028;8.834;2023-08-06T00:16:24;15.90;99.90
31455;DHT22;18084;53.028;8.834;2023-08-06T00:18:50;14.00;99.90
31455;DHT22;18084;53.028;8.834;2023-08-06T00:21:16;16.80;99.90
31455;DHT22;18084;53.028;8.834;2023-08-06T00:23:41;16.70;99.90
31455;DHT22;18084;53.028;8.834;2023-08-06T00:26:07;15.30;99.90
31455;DHT22;18084;53.028;8.834;2023-08-06T00:28:35;16.70;99.90
31455;DHT22;18084;53.028;8.834;2023-08-06T00:31:01;13.90;99.90
31455;DHT22;18084;53.028;8.834;2023-08-06T00:33:26;14.50;99.90
31455;DHT22;18084;53.028;8.834;2023-08-06T00:35:52;14.20;99.90
31455;DHT22;18084;53.028;8.834;2023-08-06T00:38:17;13.70;99.90
31455;DHT22;18084;53.028;8.834;2023-08-06T00:40:43;16.10;99.90
31455;DHT22;18084;53.028;8.834;2023-08-06T00:43:09;14.10;99.90
31455;DHT22;18084;53.028;8.834;2023-08-06T00:45:35;12.70;99.90
31455;DHT22;18084;53.028;8.834;2023-08-06T00:48:01;13.80;99.90
31455;DHT22;18084;53.028;8.834;2023-08-06T00:50:27;16.30;99.90
31455;DHT22;18084;53.028;8.834;2023-08-06T00:52:53;16.60;99.90
31455;DHT22;18084;53.028;8.834;2023-08-06T00:55:19;15.00;99.90
31455;DHT22;18084;53.028;8.834;2023-08-06T00:57:44;13.80;99.90
31455;DHT22;18084;53.028;8.834;2023-08-06T01:00:10;15.00;99.90
31455;DHT22;18084;53.028;8.834;2023-08-06T01:02:37;13.80;99.90
31455;DHT22;18084;53.028;8.834;2023-08-06T01:05:03;16.20;99.90
31455;DHT22;18084;53.028;8.834;2023-08-06T01:13:07;15.70;99.90
31455;DHT22;18084;53.028;8.834;2023-08-06T01:15:55;16.40;99.90
31455;DHT22;18084;53.028;8.834;2023-08-06T01:18:27;15.50;99.90
31455;DHT22;18084;53.028;8.834;2023-08-06T01:20:53;16.60;99.90
31455;DHT22;18084;53.028;8.834;2023-08-06T01:23:19;16.50;99.90
31455;DHT22;18084;53.028;8.834;2023-08-06T01:26:10;15.50;99.90
31455;DHT22;18084;53.028;8.834;2023-08-06T01:28:48;13.80;99.90
31455;DHT22;18084;53.028;8.834;2023-08-06T01:31:20;13.80;99.90
31455;DHT22;18084;53.028;8.834;2023-08-06T01:33:48;14.10;99.90
31455;DHT22;18084;53.028;8.834;2023-08-06T01:36:16;15.50;99.90
31455;DHT22;18084;53.028;8.834;2023-08-06T01:38:43;13.80;99.90
31455;DHT22;18084;53.028;8.834;2023-08-06T01:41:09;16.20;99.90
31455;DHT22;18084;53.028;8.834;2023-08-06T01:43:34;16.30;99.90
31455;DHT22;18084;53.028;8.834;2023-08-06T01:46:00;13.80;99.90
31455;DHT22;18084;53.028;8.834;2023-08-06T01:48:25;16.50;99.90
31455;DHT22;18084;53.028;8.834;2023-08-06T01:50:51;16.30;99.90
31455;DHT22;18084;53.028;8.834;2023-08-06T01:53:16;15.70;99.90
31455;DHT22;18084;53.028;8.834;2023-08-06T01:55:42;13.90;99.90
31455;DHT22;18084;53.028;8.834;2023-08-06T01:58:12;16.10;99.90
31455;DHT22;18084;53.028;8.834;2023-08-06T02:00:38;14.00;99.90
31455;DHT22;18084;53.028;8.834;2023-08-06T02:03:03;14.30;99.90
31455;DHT22;18084;53.028;8.834;2023-08-06T02:05:29;15.10;99.90
31455;DHT22;18084;53.028;8.834;2023-08-06T02:07:54;13.70;99.90
31455;DHT22;18084;53.028;8.834;2023-08-06T02:10:20;14.30;99.90
31455;DHT22;18084;53.028;8.834;2023-08-06T02:12:45;16.00;99.90
31455;DHT22;18084;53.028;8.834;2023-08-06T02:15:11;16.30;99.90
31455;DHT22;18084;53.028;8.834;2023-08-06T02:17:36;14.90;99.90
31455;DHT22;18084;53.028;8.834;2023-08-06T02:20:02;16.30;99.90
31455;DHT22;18084;53.028;8.834;2023-08-06T02:22:28;13.70;99.90
31455;DHT22;18084;53.028;8.834;2023-08-06T02:24:53;15.10;99.90
31455;DHT22;18084;53.028;8.834;2023-08-06T02:27:19;16.10;99.90
31455;DHT22;18084;53.028;8.834;2023-08-06T02:29:44;15.30;99.90
31455;DHT22;18084;53.028;8.834;2023-08-06T02:32:10;15.10;99.90
31455;DHT22;18084;53.028;8.834;2023-08-06T02:34:35;15.50;99.90
31455;DHT22;18084;53.028;8.834;2023-08-06T02:37:01;15.90;99.90
31455;DHT22;18084;53.028;8.834;2023-08-06T02:39:26;14.30;99.90
31455;DHT22;18084;53.028;8.834;2023-08-06T02:41:52;15.70;99.90
31455;DHT22;18084;53.028;8.834;2023-08-06T02:44:17;16.20;99.90
31455;DHT22;18084;53.028;8.834;2023-08-06T02:46:44;15.30;99.90
31455;DHT22;18084;53.028;8.834;2023-08-06T02:49:10;13.60;99.90
31455;DHT22;18084;53.028;8.834;2023-08-06T02:51:36;13.60;99.90
31455;DHT22;18084;53.028;8.834;2023-08-06T02:54:01;14.40;99.90
31455;DHT22;18084;53.028;8.834;2023-08-06T02:56:27;16.20;99.90
31455;DHT22;18084;53.028;8.834;2023-08-06T02:58:52;15.70;99.90
31455;DHT22;18084;53.028;8.834;2023-08-06T03:01:18;16.10;99.90
31455;DHT22;18084;53.028;8.834;2023-08-06T03:03:43;13.50;99.90
31455;DHT22;18084;53.028;8.834;2023-08-06T03:06:09;15.70;99.90
31455;DHT22;18084;53.028;8.834;2023-08-06T03:08:34;14.90;99.90
31455;DHT22;18084;53.028;8.834;2023-08-06T03:11:00;13.50;99.90
31455;DHT22;18084;53.028;8.834;2023-08-06T03:13:26;15.60;99.90
31455;DHT22;18084;53.028;8.834;2023-08-06T03:15:55;15.50;99.90
31455;DHT22;18084;53.028;8.834;2023-08-06T03:18:21;13.50;99.90
31455;DHT22;18084;53.028;8.834;2023-08-06T03:20:46;13.50;99.90
31455;DHT22;18084;53.028;8.834;2023-08-06T03:23:14;16.00;99.90
31455;DHT22;18084;53.028;8.834;2023-08-06T03:25:39;15.60;99.90
31455;DHT22;18084;53.028;8.834;2023-08-06T03:28:05;15.10;99.90
31455;DHT22;18084;53.028;8.834;2023-08-06T03:30:30;14.90;99.90
31455;DHT22;18084;53.028;8.834;2023-08-06T03:32:56;15.70;99.90
31455;DHT22;18084;53.028;8.834;2023-08-06T03:35:22;15.80;99.90
31455;DHT22;18084;53.028;8.834;2023-08-06T03:37:47;13.50;99.90
31455;DHT22;18084;53.028;8.834;2023-08-06T03:40:13;15.80;99.90
31455;DHT22;18084;53.028;8.834;2023-08-06T03:42:39;13.60;99.90
31455;DHT22;18084;53.028;8.834;2023-08-06T03:45:05;13.60;99.90
31455;DHT22;18084;53.028;8.834;2023-08-06T03:47:31;13.70;99.90
31455;DHT22;18084;53.028;8.834;2023-08-06T03:49:56;16.40;99.90
31455;DHT22;18084;53.028;8.834;2023-08-06T03:52:25;16.10;99.90
31455;DHT22;18084;53.028;8.834;2023-08-06T03:54:51;15.60;99.90
31455;DHT22;18084;53.028;8.834;2023-08-06T03:57:16;16.20;99.90
31455;DHT22;18084;53.028;8.834;2023-08-06T03:59:42;14.90;99.90
31455;DHT22;18084;53.028;8.834;2023-08-06T04:02:09;14.30;99.90
31455;DHT22;18084;53.028;8.834;2023-08-06T04:04:34;13.70;99.90
31455;DHT22;18084;53.028;8.834;2023-08-06T04:07:00;15.80;99.90
31455;DHT22;18084;53.028;8.834;2023-08-06T04:09:27;16.20;99.90
31455;DHT22;18084;53.028;8.834;2023-08-06T04:11:53;15.30;99.90
31455;DHT22;18084;53.028;8.834;2023-08-06T04:14:19;14.80;99.90
31455;DHT22;18084;53.028;8.834;2023-08-06T04:16:44;16.30;99.90
31455;DHT22;18084;53.028;8.834;2023-08-06T04:19:11;15.50;99.90
31455;DHT22;18084;53.028;8.834;2023-08-06T04:21:37;15.80;99.90
31455;DHT22;18084;53.028;8.834;2023-08-06T04:24:03;16.40;99.90
31455;DHT22;18084;53.028;8.834;2023-08-06T04:26:28;13.80;99.90
31455;DHT22;18084;53.028;8.834;2023-08-06T04:28:54;13.80;99.90
31455;DHT22;18084;53.028;8.834;2023-08-06T04:31:19;15.50;99.90
31455;DHT22;18084;53.028;8.834;2023-08-06T04:33:45;15.00;99.90
31455;DHT22;18084;53.028;8.834;2023-08-06T04:36:11;14.50;99.90
31455;DHT22;18084;53.028;8.834;2023-08-06T04:38:37;16.20;99.90
31455;DHT22;18084;53.028;8.834;2023-08-06T04:41:02;16.30;99.90
31455;DHT22;18084;53.028;8.834;2023-08-06T04:43:28;14.90;99.90
31455;DHT22;18084;53.028;8.834;2023-08-06T04:45:54;15.90;99.90
31455;DHT22;18084;53.028;8.834;2023-08-06T04:48:20;14.80;99.90
31455;DHT22;18084;53.028;8.834;2023-08-06T04:50:46;13.90;99.90
31455;DHT22;18084;53.028;8.834;2023-08-06T04:53:12;15.40;99.90
31455;DHT22;18084;53.028;8.834;2023-08-06T04:55:38;16.10;99.90
31455;DHT22;18084;53.028;8.834;2023-08-06T04:58:04;16.50;99.90
31455;DHT22;18084;53.028;8.834;2023-08-06T05:00:29;15.80;99.90
31455;DHT22;18084;53.028;8.834;2023-08-06T05:02:56;13.90;99.90
31455;DHT22;18084;53.028;8.834;2023-08-06T05:05:21;16.20;99.90
31455;DHT22;18084;53.028;8.834;2023-08-06T05:07:49;16.40;99.90
31455;DHT22;18084;53.028;8.834;2023-08-06T05:10:15;16.30;99.90
31455;DHT22;18084;53.028;8.834;2023-08-06T05:12:40;14.80;99.90
31455;DHT22;18084;53.028;8.834;2023-08-06T05:15:07;15.60;99.90
31455;DHT22;18084;53.028;8.834;2023-08-06T05:17:32;14.10;99.90
31455;DHT22;18084;53.028;8.834;2023-08-06T05:19:58;15.40;99.90
31455;DHT22;18084;53.028;8.834;2023-08-06T05:22:23;14.90;99.90
31455;DHT22;18084;53.028;8.834;2023-08-06T05:24:49;16.70;99.90
31455;DHT22;18084;53.028;8.834;2023-08-06T05:27:15;14.10;99.90
31455;DHT22;18084;53.028;8.834;2023-08-06T05:29:40;14.20;99.90
31455;DHT22;18084;53.028;8.834;2023-08-06T05:32:06;16.70;99.90
31455;DHT22;18084;53.028;8.834;2023-08-06T05:34:32;14.10;99.90
31455;DHT22;18084;53.028;8.834;2023-08-06T05:36:58;15.30;99.90
31455;DHT22;18084;53.028;8.834;2023-08-06T05:39:23;16.10;99.90
31455;DHT22;18084;53.028;8.834;2023-08-06T05:41:49;16.30;99.90
31455;DHT22;18084;53.028;8.834;2023-08-06T05:44:15;16.60;99.90
31455;DHT22;18084;53.028;8.834;2023-08-06T05:46:41;15.80;99.90
31455;DHT22;18084;53.028;8.834;2023-08-06T05:49:06;14.30;99.90
31455;DHT22;18084;53.028;8.834;2023-08-06T05:51:32;16.90;99.90
31455;DHT22;18084;53.028;8.834;2023-08-06T05:53:58;16.90;99.90
31455;DHT22;18084;53.028;8.834;2023-08-06T05:56:23;14.80;99.90
31455;DHT22;18084;53.028;8.834;2023-08-06T05:58:49;16.60;99.90
31455;DHT22;18084;53.028;8.834;2023-08-06T06:01:16;16.20;99.90
31455;DHT22;18084;53.028;8.834;2023-08-06T06:03:43;16.10;99.90
31455;DHT22;18084;53.028;8.834;2023-08-06T06:06:09;14.70;99.90
31455;DHT22;18084;53.028;8.834;2023-08-06T06:08:34;17.20;99.90
31455;DHT22;18084;53.028;8.834;2023-08-06T06:11:00;17.20;99.90
31455;DHT22;18084;53.028;8.834;2023-08-06T06:13:25;16.80;99.90
31455;DHT22;18084;53.028;8.834;2023-08-06T06:15:53;15.20;99.90
31455;DHT22;18084;53.028;8.834;2023-08-06T06:18:19;17.40;99.90
31455;DHT22;18084;53.028;8.834;2023-08-06T06:20:44;16.50;99.90
31455;DHT22;18084;53.028;8.834;2023-08-06T06:23:10;16.90;99.90
31455;DHT22;18084;53.028;8.834;2023-08-06T06:25:36;17.30;99.90
31455;DHT22;18084;53.028;8.834;2023-08-06T06:28:01;15.90;99.90
31455;DHT22;18084;53.028;8.834;2023-08-06T06:30:27;14.80;99.90
31455;DHT22;18084;53.028;8.834;2023-08-06T06:32:52;17.00;99.90
31455;DHT22;18084;53.028;8.834;2023-08-06T06:35:18;16.30;99.90
31455;DHT22;18084;53.028;8.834;2023-08-06T06:37:46;16.80;99.90
31455;DHT22;18084;53.028;8.834;2023-08-06T06:40:12;16.10;99.90
31455;DHT22;18084;53.028;8.834;2023-08-06T06:45:09;15.10;99.90
31455;DHT22;18084;53.028;8.834;2023-08-06T06:47:37;15.10;99.90
31455;DHT22;18084;53.028;8.834;2023-08-06T06:50:02;15.10;99.90
31455;DHT22;18084;53.028;8.834;2023-08-06T06:52:31;15.20;99.90
31455;DHT22;18084;53.028;8.834;2023-08-06T06:54:57;15.20;99.90
31455;DHT22;18084;53.028;8.834;2023-08-06T06:57:22;15.30;99.90
31455;DHT22;18084;53.028;8.834;2023-08-06T06:59:48;15.30;99.90
31455;DHT22;18084;53.028;8.834;2023-08-06T07:02:13;15.40;99.90
31455;DHT22;18084;53.028;8.834;2023-08-06T07:04:39;15.40;99.90
31455;DHT22;18084;53.028;8.834;2023-08-06T07:07:04;15.50;99.90
31455;DHT22;18084;53.028;8.834;2023-08-06T09:00:45;24.70;99.90
31455;DHT22;18084;53.028;8.834;2023-08-06T09:03:11;24.90;99.90
31455;DHT22;18084;53.028;8.834;2023-08-06T09:05:40;25.00;73.50
31455;DHT22;18084;53.028;8.834;2023-08-06T09:08:11;25.30;99.90
31455;DHT22;18084;53.028;8.834;2023-08-06T09:10:39;25.00;99.90
31455;DHT22;18084;53.028;8.834;2023-08-06T09:13:08;26.20;99.90
31455;DHT22;18084;53.028;8.834;2023-08-06T09:15:38;24.70;99.90
31455;DHT22;18084;53.028;8.834;2023-08-06T09:21:33;25.50;99.90
31455;DHT22;18084;53.028;8.834;2023-08-06T09:26:34;27.80;99.90
31455;DHT22;18084;53.028;8.834;2023-08-06T09:29:00;25.30;99.90
31455;DHT22;18084;53.028;8.834;2023-08-06T09:31:47;25.60;1.00
31455;DHT22;18084;53.028;8.834;2023-08-06T09:34:23;25.30;99.90
31455;DHT22;18084;53.028;8.834;2023-08-06T09:36:50;24.80;81.90
31455;DHT22;18084;53.028;8.834;2023-08-06T09:39:28;24.50;1.00
31455;DHT22;18084;53.028;8.834;2023-08-06T09:42:01;24.70;1.00
31455;DHT22;18084;53.028;8.834;2023-08-06T09:44:29;25.00;99.90
31455;DHT22;18084;53.028;8.834;2023-08-06T09:47:00;24.80;99.90
31455;DHT22;18084;53.028;8.834;2023-08-06T09:49:27;24.60;1.00
31455;DHT22;18084;53.028;8.834;2023-08-06T09:51:54;25.00;1.00
31455;DHT22;18084;53.028;8.834;2023-08-06T09:54:23;26.20;99.90
31455;DHT22;18084;53.028;8.834;2023-08-06T09:56:48;25.00;99.90
31455;DHT22;18084;53.028;8.834;2023-08-06T09:59:15;25.40;99.90
31455;DHT22;18084;53.028;8.834;2023-08-06T10:01:43;26.00;1.00
31455;DHT22;18084;53.028;8.834;2023-08-06T10:04:09;25.00;99.90
31455;DHT22;18084;53.028;8.834;2023-08-06T10:06:37;25.40;98.90
31455;DHT22;18084;53.028;8.834;2023-08-06T10:09:06;25.00;99.90
31455;DHT22;18084;53.028;8.834;2023-08-06T10:11:33;25.20;99.90
31455;DHT22;18084;53.028;8.834;2023-08-06T10:14:14;27.90;99.90
31455;DHT22;18084;53.028;8.834;2023-08-06T10:16:42;25.00;1.00
31455;DHT22;18084;53.028;8.834;2023-08-06T10:19:10;25.50;9.40
31455;DHT22;18084;53.028;8.834;2023-08-06T10:21:38;25.20;99.90
31455;DHT22;18084;53.028;8.834;2023-08-06T10:24:07;24.20;99.90
31455;DHT22;18084;53.028;8.834;2023-08-06T10:26:34;24.20;59.90
31455;DHT22;18084;53.028;8.834;2023-08-06T10:29:00;23.60;99.90
31455;DHT22;18084;53.028;8.834;2023-08-06T10:31:54;23.60;99.90
31455;DHT22;18084;53.028;8.834;2023-08-06T10:34:22;23.40;99.90
31455;DHT22;18084;53.028;8.834;2023-08-06T10:36:48;23.60;99.90
31455;DHT22;18084;53.028;8.834;2023-08-06T10:39:14;23.50;1.00
31455;DHT22;18084;53.028;8.834;2023-08-06T10:41:42;23.60;99.90
31455;DHT22;18084;53.028;8.834;2023-08-06T10:44:09;24.10;99.90
31455;DHT22;18084;53.028;8.834;2023-08-06T10:46:35;24.30;99.90
31455;DHT22;18084;53.028;8.834;2023-08-06T10:51:27;23.90;61.00
31455;DHT22;18084;53.028;8.834;2023-08-06T10:53:53;26.40;99.90
31455;DHT22;18084;53.028;8.834;2023-08-06T10:56:21;24.50;1.00
31455;DHT22;18084;53.028;8.834;2023-08-06T10:58:56;24.10;99.90
31455;DHT22;18084;53.028;8.834;2023-08-06T11:01:23;24.10;99.90
31455;DHT22;18084;53.028;8.834;2023-08-06T11:03:49;24.30;52.20
31455;DHT22;18084;53.028;8.834;2023-08-06T11:06:19;24.60;99.90
31455;DHT22;18084;53.028;8.834;2023-08-06T11:08:50;24.80;1.00
31455;DHT22;18084;53.028;8.834;2023-08-06T11:13:50;24.80;99.90
31455;DHT22;18084;53.028;8.834;2023-08-06T11:16:18;24.90;1.00
31455;DHT22;18084;53.028;8.834;2023-08-06T11:18:44;24.00;1.00
31455;DHT22;18084;53.028;8.834;2023-08-06T11:21:10;24.00;99.90
31455;DHT22;18084;53.028;8.834;2023-08-06T11:23:37;24.40;99.90
31455;DHT22;18084;53.028;8.834;2023-08-06T11:28:30;24.60;1.00
31455;DHT22;18084;53.028;8.834;2023-08-06T11:30:56;24.90;99.90
31455;DHT22;18084;53.028;8.834;2023-08-06T11:33:25;25.10;2.00
31455;DHT22;18084;53.028;8.834;2023-08-06T11:35:52;25.00;99.90
31455;DHT22;18084;53.028;8.834;2023-08-06T11:40:45;24.60;99.90
31455;DHT22;18084;53.028;8.834;2023-08-06T11:45:37;24.50;99.90
31455;DHT22;18084;53.028;8.834;2023-08-06T11:48:02;24.20;99.90
31455;DHT22;18084;53.028;8.834;2023-08-06T11:53:00;24.10;99.90
31455;DHT22;18084;53.028;8.834;2023-08-06T11:57:52;24.90;99.90
31455;DHT22;18084;53.028;8.834;2023-08-06T12:02:46;24.40;99.90
31455;DHT22;18084;53.028;8.834;2023-08-06T12:05:13;24.50;99.90
31455;DHT22;18084;53.028;8.834;2023-08-06T12:07:42;24.50;99.90
31455;DHT22;18084;53.028;8.834;2023-08-06T12:12:35;24.80;99.90
31455;DHT22;18084;53.028;8.834;2023-08-06T12:15:01;25.00;1.00
31455;DHT22;18084;53.028;8.834;2023-08-06T12:17:26;25.00;99.90
31455;DHT22;18084;53.028;8.834;2023-08-06T12:19:52;24.70;99.90
31455;DHT22;18084;53.028;8.834;2023-08-06T12:24:45;25.30;1.00
31455;DHT22;18084;53.028;8.834;2023-08-06T12:27:11;25.20;1.00
31455;DHT22;18084;53.028;8.834;2023-08-06T12:29:41;24.80;1.00
31455;DHT22;18084;53.028;8.834;2023-08-06T12:32:15;24.80;89.50
31455;DHT22;18084;53.028;8.834;2023-08-06T12:34:42;24.90;99.90
31455;DHT22;18084;53.028;8.834;2023-08-06T12:37:08;25.00;1.00
31455;DHT22;18084;53.028;8.834;2023-08-06T12:39:37;25.30;99.90
31455;DHT22;18084;53.028;8.834;2023-08-06T12:42:05;25.30;1.00
31455;DHT22;18084;53.028;8.834;2023-08-06T12:49:24;25.20;99.90
31455;DHT22;18084;53.028;8.834;2023-08-06T12:54:17;24.40;99.90
31455;DHT22;18084;53.028;8.834;2023-08-06T12:59:09;24.60;99.90
31455;DHT22;18084;53.028;8.834;2023-08-06T13:01:36;24.30;99.90
31455;DHT22;18084;53.028;8.834;2023-08-06T13:06:28;24.30;99.90
31455;DHT22;18084;53.028;8.834;2023-08-06T13:18:38;23.80;17.60
31455;DHT22;18084;53.028;8.834;2023-08-06T13:40:33;24.90;41.90
31455;DHT22;18084;53.028;8.834;2023-08-06T13:50:17;24.70;99.90
31455;DHT22;18084;53.028;8.834;2023-08-06T13:55:09;24.40;99.90
31455;DHT22;18084;53.028;8.834;2023-08-06T13:57:34;24.20;99.90
31455;DHT22;18084;53.028;8.834;2023-08-06T14:00:01;24.10;99.90
31455;DHT22;18084;53.028;8.834;2023-08-06T14:02:26;24.00;9.20
31455;DHT22;18084;53.028;8.834;2023-08-06T14:04:52;24.30;99.90
31455;DHT22;18084;53.028;8.834;2023-08-06T14:07:19;24.40;99.90
31455;DHT22;18084;53.028;8.834;2023-08-06T14:09:44;24.40;99.90
31455;DHT22;18084;53.028;8.834;2023-08-06T14:12:10;24.40;99.90
31455;DHT22;18084;53.028;8.834;2023-08-06T14:14:36;24.40;99.90
31455;DHT22;18084;53.028;8.834;2023-08-06T14:19:28;24.10;1.00
31455;DHT22;18084;53.028;8.834;2023-08-06T14:21:54;26.60;54.00
31455;DHT22;18084;53.028;8.834;2023-08-06T14:24:21;23.80;1.00
31455;DHT22;18084;53.028;8.834;2023-08-06T14:26:46;23.80;99.90
31455;DHT22;18084;53.028;8.834;2023-08-06T14:29:12;23.90;99.90
31455;DHT22;18084;53.028;8.834;2023-08-06T14:31:39;23.70;48.10
31455;DHT22;18084;53.028;8.834;2023-08-06T14:34:05;23.60;1.00
31455;DHT22;18084;53.028;8.834;2023-08-06T14:38:57;23.30;21.10
31455;DHT22;18084;53.028;8.834;2023-08-06T14:43:49;23.60;99.90
31455;DHT22;18084;53.028;8.834;2023-08-06T14:46:15;23.70;99.90
31455;DHT22;18084;53.028;8.834;2023-08-06T14:51:08;23.80;99.90
31455;DHT22;18084;53.028;8.834;2023-08-06T14:53:34;23.80;54.50
31455;DHT22;18084;53.028;8.834;2023-08-06T14:58:25;24.10;1.00
31455;DHT22;18084;53.028;8.834;2023-08-06T15:03:17;23.80;99.90
31455;DHT22;18084;53.028;8.834;2023-08-06T15:05:49;24.60;50.10
31455;DHT22;18084;53.028;8.834;2023-08-06T15:08:15;23.40;99.90
31455;DHT22;18084;53.028;8.834;2023-08-06T15:10:40;24.90;99.90
31455;DHT22;18084;53.028;8.834;2023-08-06T15:13:06;25.90;42.90
31455;DHT22;18084;53.028;8.834;2023-08-06T15:15:32;23.60;70.20
31455;DHT22;18084;53.028;8.834;2023-08-06T15:17:57;23.10;1.00
31455;DHT22;18084;53.028;8.834;2023-08-06T15:20:24;23.40;99.90
31455;DHT22;18084;53.028;8.834;2023-08-06T15:22:49;23.50;99.90
31455;DHT22;18084;53.028;8.834;2023-08-06T15:25:15;23.30;99.90
31455;DHT22;18084;53.028;8.834;2023-08-06T15:27:40;23.00;99.90
31455;DHT22;18084;53.028;8.834;2023-08-06T15:30:09;23.00;99.90
31455;DHT22;18084;53.028;8.834;2023-08-06T15:32:35;23.20;1.00
31455;DHT22;18084;53.028;8.834;2023-08-06T15:35:00;23.20;1.00
31455;DHT22;18084;53.028;8.834;2023-08-06T15:37:26;23.20;99.20
31455;DHT22;18084;53.028;8.834;2023-08-06T15:39:52;23.20;99.90
31455;DHT22;18084;53.028;8.834;2023-08-06T15:42:18;23.40;99.90
31455;DHT22;18084;53.028;8.834;2023-08-06T15:44:43;23.30;1.00
31455;DHT22;18084;53.028;8.834;2023-08-06T15:47:09;23.10;61.30
31455;DHT22;18084;53.028;8.834;2023-08-06T15:49:35;22.90;99.90
31455;DHT22;18084;53.028;8.834;2023-08-06T15:52:01;22.70;1.00
31455;DHT22;18084;53.028;8.834;2023-08-06T15:54:27;22.50;60.40
31455;DHT22;18084;53.028;8.834;2023-08-06T15:56:52;22.60;16.80
31455;DHT22;18084;53.028;8.834;2023-08-06T15:59:23;22.40;99.90
31455;DHT22;18084;53.028;8.834;2023-08-06T16:01:49;22.20;99.90
31455;DHT22;18084;53.028;8.834;2023-08-06T16:04:14;22.10;1.00
31455;DHT22;18084;53.028;8.834;2023-08-06T16:06:40;22.10;99.90
31455;DHT22;18084;53.028;8.834;2023-08-06T16:09:05;22.00;1.00
31455;DHT22;18084;53.028;8.834;2023-08-06T16:11:31;22.00;99.90
31455;DHT22;18084;53.028;8.834;2023-08-06T16:13:56;21.70;99.90
31455;DHT22;18084;53.028;8.834;2023-08-06T16:16:22;21.80;99.90
31455;DHT22;18084;53.028;8.834;2023-08-06T16:18:48;21.70;99.90
31455;DHT22;18084;53.028;8.834;2023-08-06T16:21:13;21.60;99.90
31455;DHT22;18084;53.028;8.834;2023-08-06T16:23:39;21.50;99.90
31455;DHT22;18084;53.028;8.834;2023-08-06T16:26:04;21.90;99.90
31455;DHT22;18084;53.028;8.834;2023-08-06T16:28:30;22.60;99.90
31455;DHT22;18084;53.028;8.834;2023-08-06T16:34:33;21.10;1.00
31455;DHT22;18084;53.028;8.834;2023-08-06T16:37:05;20.90;1.00
31455;DHT22;18084;53.028;8.834;2023-08-06T16:40:11;20.90;1.00
31455;DHT22;18084;53.028;8.834;2023-08-06T16:42:54;20.80;1.00
31455;DHT22;18084;53.028;8.834;2023-08-06T16:45:40;20.70;1.00
31455;DHT22;18084;53.028;8.834;2023-08-06T16:48:06;21.50;1.00
31455;DHT22;18084;53.028;8.834;2023-08-06T16:50:55;20.50;1.00
31455;DHT22;18084;53.028;8.834;2023-08-06T16:53:22;20.50;1.00
31455;DHT22;18084;53.028;8.834;2023-08-06T16:55:56;20.50;7.20
31455;DHT22;18084;53.028;8.834;2023-08-06T16:59:11;19.80;1.00
31455;DHT22;18084;53.028;8.834;2023-08-06T17:01:43;20.50;1.00
31455;DHT22;18084;53.028;8.834;2023-08-06T17:04:48;20.40;1.00
31455;DHT22;18084;53.028;8.834;2023-08-06T17:07:19;20.30;14.10
31455;DHT22;18084;53.028;8.834;2023-08-06T17:09:48;21.50;11.70
31455;DHT22;18084;53.028;8.834;2023-08-06T17:12:14;20.40;8.10
31455;DHT22;18084;53.028;8.834;2023-08-06T17:14:59;21.60;16.70
31455;DHT22;18084;53.028;8.834;2023-08-06T17:17:52;20.30;13.00
31455;DHT22;18084;53.028;8.834;2023-08-06T17:20:40;20.30;10.40
31455;DHT22;18084;53.028;8.834;2023-08-06T17:23:39;21.70;1.20
31455;DHT22;18084;53.028;8.834;2023-08-06T17:26:18;21.00;4.50
31455;DHT22;18084;53.028;8.834;2023-08-06T17:29:01;20.20;1.00
31455;DHT22;18084;53.028;8.834;2023-08-06T17:31:34;20.10;1.00
31455;DHT22;18084;53.028;8.834;2023-08-06T17:34:08;20.20;15.20
31455;DHT22;18084;53.028;8.834;2023-08-06T17:36:37;20.20;6.00
31455;DHT22;18084;53.028;8.834;2023-08-06T17:39:02;20.10;22.80
31455;DHT22;18084;53.028;8.834;2023-08-06T17:41:33;20.10;7.40
31455;DHT22;18084;53.028;8.834;2023-08-06T17:43:59;21.60;2.10
31455;DHT22;18084;53.028;8.834;2023-08-06T17:46:33;20.00;6.80
31455;DHT22;18084;53.028;8.834;2023-08-06T17:49:01;18.70;10.20
31455;DHT22;18084;53.028;8.834;2023-08-06T17:51:27;19.80;4.70
31455;DHT22;18084;53.028;8.834;2023-08-06T17:53:55;20.80;14.10
31455;DHT22;18084;53.028;8.834;2023-08-06T17:56:28;20.20;15.20
31455;DHT22;18084;53.028;8.834;2023-08-06T17:58:54;18.80;5.30
31455;DHT22;18084;53.028;8.834;2023-08-06T18:01:22;19.60;16.90
31455;DHT22;18084;53.028;8.834;2023-08-06T18:03:48;19.50;10.20
31455;DHT22;18084;53.028;8.834;2023-08-06T18:06:18;19.50;14.90
31455;DHT22;18084;53.028;8.834;2023-08-06T18:08:46;19.30;20.50
31455;DHT22;18084;53.028;8.834;2023-08-06T18:11:12;20.30;21.90
31455;DHT22;18084;53.028;8.834;2023-08-06T18:13:38;19.20;29.90
31455;DHT22;18084;53.028;8.834;2023-08-06T18:16:03;18.80;38.90
31455;DHT22;18084;53.028;8.834;2023-08-06T18:18:36;19.10;41.60
31455;DHT22;18084;53.028;8.834;2023-08-06T18:21:02;19.40;49.00
31455;DHT22;18084;53.028;8.834;2023-08-06T18:23:32;18.90;54.00
31455;DHT22;18084;53.028;8.834;2023-08-06T18:26:00;19.80;57.60
31455;DHT22;18084;53.028;8.834;2023-08-06T18:28:29;18.90;54.30
31455;DHT22;18084;53.028;8.834;2023-08-06T18:30:57;18.60;53.80
31455;DHT22;18084;53.028;8.834;2023-08-06T18:33:23;18.80;59.20
31455;DHT22;18084;53.028;8.834;2023-08-06T18:36:00;18.80;63.40
31455;DHT22;18084;53.028;8.834;2023-08-06T18:38:28;18.80;54.70
31455;DHT22;18084;53.028;8.834;2023-08-06T18:40:58;18.60;68.30
31455;DHT22;18084;53.028;8.834;2023-08-06T18:43:24;20.30;64.50
31455;DHT22;18084;53.028;8.834;2023-08-06T18:45:52;18.90;67.90
31455;DHT22;18084;53.028;8.834;2023-08-06T18:48:24;18.80;66.60
31455;DHT22;18084;53.028;8.834;2023-08-06T18:50:56;19.70;66.60
31455;DHT22;18084;53.028;8.834;2023-08-06T18:53:25;20.20;65.40
31455;DHT22;18084;53.028;8.834;2023-08-06T18:55:54;18.70;62.20
31455;DHT22;18084;53.028;8.834;2023-08-06T18:58:20;18.00;71.90
31455;DHT22;18084;53.028;8.834;2023-08-06T19:00:46;20.20;73.20
31455;DHT22;18084;53.028;8.834;2023-08-06T19:03:15;18.50;77.90
31455;DHT22;18084;53.028;8.834;2023-08-06T19:05:44;18.90;82.50
31455;DHT22;18084;53.028;8.834;2023-08-06T19:08:09;18.40;72.60
31455;DHT22;18084;53.028;8.834;2023-08-06T19:10:38;19.10;65.00
31455;DHT22;18084;53.028;8.834;2023-08-06T19:13:08;18.20;54.60
31455;DHT22;18084;53.028;8.834;2023-08-06T19:15:49;18.10;22.40